Main page
METAR-TAF:

METAR-TAF

Airports :

Baghdad, Iraq

Baghdad International Airport

latitude: 33-15-45N, longitude: 44-14-04E, elevation: 35 m

Current weather observation

The report was made 35 minutes ago, at 20:00 UTC
Wind 8 kt from the West
Temperature 31°C
Humidity 19%
Pressure 1005 hPa
Visibility 10 km or more
no clouds below 1500 m and no cumulonimbus

METAR: ORBI 232000Z 27008KT CAVOK 31/05 Q1005 NOSIG

Time: 23:35 (20:35 UTC)

Forecast

The report was made 3 hours and 35 minutes ago, at 17:00 UTC
Forecast valid from 23 at 18 UTC to 24 at 18 UTC
Wind 12 kt from the West/Northwest
Visibility: 8000 m

TAF: ORBI 231700Z 2318/2418 30012KT 8000 NSC

Weather observations and forecasts of more than 4000 airports (METAR and TAF reports).

The available stations are represented by yellow and red dots on the map.

Hover mouse over dot to see the name of the station.

Then click to see weather observations and forecasts.

To change the map : click on the green buttons with a black cross to zoom in, on the green button with a dash to zoom out, or on the green arrows for adjacent maps.


METAR-TAF: